HAAB/ADD METAR and TAF weather

Enter ICAO airport designator
Station Type Date Time Source
HAAB METAR 2018/12/10 20:00 UTC NOAA

HAAB 102000Z 06006KT 9999 FEW025 15/09 Q1029


Station Type Date Time Source
HAAB Decoded METAR 2018/12/10 20:00 UTC NOAA

Addis Ababa, Ethiopia (HAAB) 08-59N 038-48E 2324M
Dec 10, 2018 - 03:00 PM EST / 2018.12.10 2000 UTC
Wind: from the ENE (060 degrees) at 7 MPH (6 KT):0
Visibility: greater than 7 mile(s):0
Sky conditions: mostly clear
Temperature: 59 F (15 C)
Dew Point: 48 F (9 C)
Relative Humidity: 67%
Pressure (altimeter): 30.39 in. Hg (1029 hPa)
ob: HAAB 102000Z 06006KT 9999 FEW025 15/09 Q1029
cycle: 20

Station Type Date Time Source
HAAB TAF 2018/12/10 12:36 UTC NOAA

TAF TAF HAAB 100930Z 1012/1118 12008KT 9999 BKN028 SCT090
BECMG 1021/1105 09005KT SCT030


Example: see airport list